createdAt,value
2022-11-11T00:01:01.299Z,4.59
2022-11-11T00:03:47.872Z,4.62
2022-11-11T01:56:58.452Z,3.77
2022-11-11T01:59:51.472Z,3.76
2022-11-11T02:02:44.802Z,3.78
2022-11-11T02:05:42.411Z,3.78
2022-11-11T02:08:34.154Z,3.73
2022-11-11T02:11:37.415Z,3.75
2022-11-11T02:14:40.269Z,3.69
2022-11-11T02:17:31.046Z,3.66
2022-11-11T02:20:21.881Z,3.66
2022-11-11T02:23:12.376Z,3.64
2022-11-11T02:26:02.958Z,3.63
2022-11-11T02:28:50.552Z,3.62
2022-11-11T02:31:37.982Z,3.63
2022-11-11T02:34:36.371Z,3.58
2022-11-11T02:37:25.153Z,3.60
2022-11-11T02:40:15.322Z,3.58
2022-11-11T02:43:03.641Z,3.57
2022-11-11T02:45:50.152Z,3.55
2022-11-11T02:48:36.831Z,3.51
2022-11-11T02:51:23.521Z,3.53
2022-11-11T02:54:10.270Z,3.51
2022-11-11T02:57:09.273Z,3.50
2022-11-11T02:59:59.744Z,3.46
2022-11-11T03:02:46.726Z,3.44
2022-11-11T03:05:33.846Z,3.43
2022-11-11T03:08:20.387Z,3.44
2022-11-11T03:11:07.407Z,3.49
2022-11-11T03:13:54.354Z,3.43
2022-11-11T03:16:59.973Z,3.41
2022-11-11T03:19:46.485Z,3.39
2022-11-11T03:25:40.323Z,3.32
2022-11-11T03:28:27.305Z,3.35
2022-11-11T03:31:14.258Z,3.36
2022-11-11T03:34:18.398Z,3.35
2022-11-11T03:37:23.765Z,3.32
2022-11-11T03:40:11.658Z,3.34
2022-11-11T03:43:03.863Z,3.34
2022-11-11T03:45:52.161Z,3.38
2022-11-11T03:48:38.865Z,3.29
2022-11-11T03:51:27.231Z,3.31
2022-11-11T03:54:14.078Z,3.28
2022-11-11T03:57:14.470Z,3.33
2022-11-11T04:00:00.924Z,3.34
2022-11-11T04:03:04.728Z,3.30
2022-11-11T04:06:09.414Z,3.23
2022-11-11T04:09:14.653Z,3.31
2022-11-11T04:12:01.240Z,3.24
2022-11-11T04:15:05.328Z,3.23
2022-11-11T04:17:51.861Z,3.22
2022-11-11T04:20:51.979Z,3.24
2022-11-11T04:23:38.351Z,3.28
2022-11-11T04:26:25.542Z,3.21
2022-11-11T04:29:30.400Z,3.23
2022-11-11T04:32:35.848Z,3.20
2022-11-11T04:35:24.011Z,3.15
2022-11-11T04:38:28.424Z,3.13
2022-11-11T04:41:15.372Z,3.13
2022-11-11T04:44:20.897Z,3.16
2022-11-11T04:47:07.547Z,3.20
2022-11-11T04:49:54.322Z,3.15
2022-11-11T04:52:40.828Z,3.16
2022-11-11T04:55:45.408Z,3.15
2022-11-11T04:58:35.253Z,3.13
2022-11-11T05:01:37.027Z,3.11
2022-11-11T05:04:23.335Z,3.16
2022-11-11T05:07:27.404Z,3.15
2022-11-11T05:10:14.122Z,3.15
2022-11-11T05:13:22.451Z,3.12
2022-11-11T05:16:30.091Z,3.12
2022-11-11T05:19:36.094Z,3.15
2022-11-11T05:22:24.965Z,3.12
2022-11-11T05:25:29.394Z,3.09
2022-11-11T05:28:15.678Z,3.08
2022-11-11T05:31:02.278Z,3.12
2022-11-11T05:33:48.990Z,3.08
2022-11-11T05:36:36.851Z,3.11
2022-11-11T05:39:36.270Z,3.11
2022-11-11T05:42:23.038Z,3.04
2022-11-11T05:45:10.691Z,3.05
2022-11-11T05:48:01.612Z,3.11
2022-11-11T05:50:48.199Z,3.09
2022-11-11T05:53:36.057Z,3.08
2022-11-11T05:56:22.754Z,3.09
2022-11-11T05:59:09.711Z,3.11
2022-11-11T06:01:56.564Z,3.03
2022-11-11T06:04:43.158Z,3.03
2022-11-11T06:07:30.069Z,3.08
2022-11-11T06:10:33.386Z,3.07
2022-11-11T06:13:20.007Z,3.05
2022-11-11T06:16:07.107Z,3.11
2022-11-11T06:18:54.171Z,3.08
2022-11-11T06:21:54.397Z,3.06
2022-11-11T06:24:41.053Z,3.05
2022-11-11T06:27:28.711Z,3.03
2022-11-11T06:33:22.822Z,3.02
2022-11-11T06:36:11.566Z,3.04
2022-11-11T06:38:58.245Z,2.99
2022-11-11T06:41:45.144Z,3.03
2022-11-11T06:44:32.827Z,3.05
2022-11-11T06:47:19.305Z,3.08
2022-11-11T06:50:07.129Z,3.07
2022-11-11T06:52:54.234Z,3.05
2022-11-11T06:55:40.989Z,3.12
2022-11-11T06:58:27.822Z,3.12
2022-11-11T07:01:15.914Z,3.09
2022-11-11T07:04:02.604Z,3.08
2022-11-11T07:06:49.227Z,3.13
2022-11-11T07:09:35.687Z,3.19
2022-11-11T07:12:23.137Z,3.22
2022-11-11T07:15:10.951Z,3.28
2022-11-11T07:17:58.575Z,3.36
2022-11-11T07:20:45.508Z,3.46
2022-11-11T07:23:31.976Z,3.58
2022-11-11T07:26:18.327Z,3.62
2022-11-11T07:29:04.992Z,3.64
2022-11-11T07:31:51.602Z,3.64
2022-11-11T07:34:39.725Z,3.69
2022-11-11T07:37:26.570Z,3.80
2022-11-11T07:40:15.273Z,3.82
2022-11-11T07:43:02.018Z,3.90
2022-11-11T07:45:48.499Z,3.97
2022-11-11T07:48:35.210Z,4.04
2022-11-11T07:51:23.261Z,4.12
2022-11-11T07:54:09.844Z,4.19
2022-11-11T07:56:56.483Z,4.23
2022-11-11T07:59:43.858Z,4.32
2022-11-11T08:02:30.573Z,4.34
2022-11-11T08:05:17.240Z,4.40
2022-11-11T08:08:06.437Z,4.46
2022-11-11T08:10:55.309Z,4.53
2022-11-11T08:13:40.992Z,4.60
2022-11-11T08:16:27.872Z,4.68
2022-11-11T08:19:14.718Z,4.71
2022-11-11T08:22:01.543Z,4.78
2022-11-11T08:25:03.539Z,4.83
2022-11-11T08:27:57.400Z,4.91
2022-11-11T08:30:43.733Z,4.96
2022-11-11T08:33:33.885Z,5.01
2022-11-11T08:36:23.607Z,5.06
2022-11-11T08:39:12.024Z,5.13
2022-11-11T08:42:00.419Z,5.19
2022-11-11T08:44:47.181Z,5.26
2022-11-11T08:47:33.431Z,5.33
2022-11-11T08:50:20.353Z,5.39
2022-11-11T08:53:08.309Z,5.44
2022-11-11T08:55:55.196Z,5.45
2022-11-11T08:58:43.734Z,5.51
2022-11-11T09:01:30.204Z,5.56
2022-11-11T09:04:42.963Z,5.65
2022-11-11T09:07:23.812Z,5.68
2022-11-11T09:10:10.968Z,5.70
2022-11-11T09:12:58.292Z,5.73
2022-11-11T09:15:46.160Z,5.78
2022-11-11T09:18:32.674Z,5.81
2022-11-11T09:21:18.943Z,5.86
2022-11-11T09:24:06.458Z,5.90
2022-11-11T09:26:53.448Z,5.99
2022-11-11T09:29:40.575Z,6.05
2022-11-11T09:32:28.395Z,6.14
2022-11-11T09:35:14.990Z,6.22
2022-11-11T09:38:02.339Z,6.28
2022-11-11T09:40:59.250Z,6.35
2022-11-11T09:43:53.816Z,6.47
2022-11-11T09:46:47.956Z,6.64
2022-11-11T09:49:51.699Z,6.80
2022-11-11T09:52:41.976Z,6.88
2022-11-11T09:55:33.191Z,7.02
2022-11-11T09:58:23.210Z,7.14
2022-11-11T10:01:13.996Z,7.23
2022-11-11T10:04:07.229Z,7.30
2022-11-11T10:07:01.951Z,7.39
2022-11-11T10:09:58.285Z,7.51
2022-11-11T10:12:52.086Z,7.59
2022-11-11T10:15:50.322Z,7.72
2022-11-11T10:18:51.953Z,7.87
2022-11-11T10:22:11.238Z,7.99
2022-11-11T10:25:01.355Z,8.08
2022-11-11T10:27:50.877Z,8.14
2022-11-11T10:30:38.458Z,8.27
2022-11-11T10:33:29.983Z,8.36
2022-11-11T10:36:20.987Z,8.38
2022-11-11T10:39:07.747Z,8.45
2022-11-11T10:41:55.946Z,8.54
2022-11-11T10:44:43.623Z,8.59
2022-11-11T10:47:42.657Z,8.66
2022-11-11T10:50:35.130Z,8.73
2022-11-11T10:53:26.917Z,8.74
2022-11-11T10:56:21.676Z,8.78
2022-11-11T10:59:19.218Z,8.84
2022-11-11T11:02:11.036Z,8.87
2022-11-11T11:05:03.168Z,8.92
2022-11-11T11:07:55.326Z,9.01
2022-11-11T11:10:47.027Z,9.13
2022-11-11T11:13:37.652Z,9.19
2022-11-11T11:16:32.107Z,9.23
2022-11-11T11:19:20.400Z,9.27
2022-11-11T11:22:06.808Z,9.29
2022-11-11T11:25:10.881Z,9.34
2022-11-11T11:28:08.638Z,9.39
2022-11-11T11:31:03.141Z,9.43
2022-11-11T11:33:55.380Z,9.45
2022-11-11T11:36:42.680Z,9.48
2022-11-11T11:39:36.610Z,9.51
2022-11-11T11:42:30.721Z,9.53
2022-11-11T11:45:22.770Z,9.56
2022-11-11T11:48:41.512Z,9.53
2022-11-11T11:51:37.412Z,9.54
2022-11-11T11:54:39.740Z,9.56
2022-11-11T11:57:44.354Z,9.59
2022-11-11T12:00:33.070Z,9.62
2022-11-11T12:03:39.521Z,9.65
2022-11-11T12:06:37.029Z,9.64
2022-11-11T12:09:38.547Z,9.68
2022-11-11T12:12:36.462Z,9.67
2022-11-11T12:15:35.139Z,9.69
2022-11-11T12:18:40.696Z,9.72
2022-11-11T12:21:34.444Z,9.78
2022-11-11T12:24:39.483Z,9.82
2022-11-11T12:27:35.988Z,9.86
2022-11-11T12:30:28.682Z,9.92
2022-11-11T12:33:39.555Z,9.95
2022-11-11T12:36:33.777Z,9.99
2022-11-11T12:39:46.180Z,10.06
2022-11-11T12:42:55.320Z,10.14
2022-11-11T12:45:49.052Z,10.24
2022-11-11T12:48:52.777Z,10.26
2022-11-11T12:51:55.833Z,10.30
2022-11-11T12:54:55.881Z,10.32
2022-11-11T12:57:57.291Z,10.38
2022-11-11T13:00:58.932Z,10.43
2022-11-11T13:03:55.801Z,10.48
2022-11-11T13:06:57.540Z,10.51
2022-11-11T13:10:01.121Z,10.52
2022-11-11T13:12:54.385Z,10.57
2022-11-11T13:15:40.867Z,10.57
2022-11-11T13:18:30.680Z,10.57
2022-11-11T13:21:20.829Z,10.61
2022-11-11T13:24:11.531Z,10.63
2022-11-11T13:27:04.848Z,10.68
2022-11-11T13:30:07.429Z,10.69
2022-11-11T13:33:01.368Z,10.73
2022-11-11T13:35:53.540Z,10.75
2022-11-11T13:38:47.087Z,10.81
2022-11-11T13:41:36.131Z,10.85
2022-11-11T13:44:27.028Z,10.86
2022-11-11T13:47:19.500Z,10.88
2022-11-11T13:50:09.199Z,10.91
2022-11-11T13:53:00.585Z,10.92
2022-11-11T13:55:48.589Z,10.94
2022-11-11T13:58:38.873Z,10.96
2022-11-11T14:01:41.526Z,10.99
2022-11-11T14:04:29.363Z,11.08
2022-11-11T14:07:57.813Z,11.10
2022-11-11T14:10:52.238Z,11.08
2022-11-11T14:13:41.204Z,11.09
2022-11-11T14:17:04.990Z,11.09
2022-11-11T14:19:51.710Z,11.09
2022-11-11T14:22:38.782Z,11.11
2022-11-11T14:25:28.072Z,11.10
2022-11-11T14:28:23.599Z,11.10
2022-11-11T14:31:40.700Z,11.09
2022-11-11T14:34:52.531Z,11.10
2022-11-11T14:38:00.427Z,11.11
2022-11-11T14:40:47.027Z,11.08
2022-11-11T14:43:38.956Z,11.08
2022-11-11T14:46:25.487Z,11.05
2022-11-11T14:49:12.535Z,11.06
2022-11-11T14:52:02.462Z,11.02
2022-11-11T14:54:58.266Z,11.01
2022-11-11T14:57:48.556Z,10.99
2022-11-11T15:00:46.053Z,10.97
2022-11-11T15:03:38.365Z,10.93
2022-11-11T15:06:29.279Z,10.91
2022-11-11T15:09:43.211Z,10.85
2022-11-11T15:12:42.200Z,10.79
2022-11-11T15:15:37.074Z,10.75
2022-11-11T15:18:48.568Z,10.67
2022-11-11T15:21:37.285Z,10.61
2022-11-11T15:24:36.682Z,10.54
2022-11-11T15:27:33.464Z,10.43
2022-11-11T15:30:22.991Z,10.38
2022-11-11T15:33:17.064Z,10.34
2022-11-11T15:36:11.958Z,10.23
2022-11-11T15:39:01.002Z,10.24
2022-11-11T15:41:52.206Z,10.24
2022-11-11T15:44:39.079Z,10.18
2022-11-11T15:47:28.124Z,10.08
2022-11-11T15:50:19.407Z,10.01
2022-11-11T15:53:07.851Z,9.95
2022-11-11T15:55:56.693Z,9.82
2022-11-11T15:58:44.969Z,9.74
2022-11-11T16:01:31.583Z,9.66
2022-11-11T16:04:54.415Z,9.55
2022-11-11T16:07:32.918Z,9.55
2022-11-11T16:10:26.674Z,9.56
2022-11-11T16:13:17.476Z,9.57
2022-11-11T16:16:10.362Z,9.49
2022-11-11T16:19:02.184Z,9.33
2022-11-11T16:21:53.788Z,9.23
2022-11-11T16:24:43.514Z,9.15
2022-11-11T16:27:33.514Z,9.01
2022-11-11T16:30:29.780Z,8.92
2022-11-11T16:33:36.071Z,8.92
2022-11-11T16:36:23.198Z,8.79
2022-11-11T16:39:16.619Z,8.70
2022-11-11T16:42:06.677Z,8.68
2022-11-11T16:44:58.234Z,8.64
2022-11-11T16:47:48.518Z,8.58
2022-11-11T16:50:54.874Z,8.56
2022-11-11T16:53:46.129Z,8.58
2022-11-11T16:56:33.709Z,8.52
2022-11-11T16:59:25.931Z,8.50
2022-11-11T17:02:19.599Z,8.52
2022-11-11T17:05:06.799Z,8.42
2022-11-11T17:07:54.653Z,8.28
2022-11-11T17:10:41.578Z,8.22
2022-11-11T17:13:28.655Z,8.21
2022-11-11T17:16:15.437Z,8.08
2022-11-11T17:19:02.036Z,7.96
2022-11-11T17:21:48.530Z,7.97
2022-11-11T17:24:36.764Z,7.87
2022-11-11T17:27:23.676Z,7.82
2022-11-11T17:30:12.031Z,7.78
2022-11-11T17:32:58.692Z,7.78
2022-11-11T17:35:51.603Z,7.73
2022-11-11T17:38:39.723Z,7.69
2022-11-11T17:41:27.734Z,7.69
2022-11-11T17:44:14.086Z,7.70
2022-11-11T17:47:00.647Z,7.65
2022-11-11T17:50:02.606Z,7.66
2022-11-11T17:52:48.968Z,7.60
2022-11-11T17:55:36.037Z,7.61
2022-11-11T17:58:24.235Z,7.61
2022-11-11T18:01:14.705Z,7.53
2022-11-11T18:04:01.114Z,7.51
2022-11-11T18:06:48.056Z,7.46
2022-11-11T18:09:34.542Z,7.41
2022-11-11T18:12:21.101Z,7.34
2022-11-11T18:15:10.764Z,7.26
2022-11-11T18:17:57.120Z,7.20
2022-11-11T18:20:43.722Z,7.15
2022-11-11T18:23:34.260Z,7.15
2022-11-11T18:26:20.913Z,7.10
2022-11-11T18:29:08.101Z,7.05
2022-11-11T18:31:56.572Z,7.00
2022-11-11T18:34:43.243Z,6.94
2022-11-11T18:37:29.788Z,6.89
2022-11-11T18:40:16.906Z,6.82
2022-11-11T18:43:03.767Z,6.78
2022-11-11T18:45:51.133Z,6.71
2022-11-11T18:48:39.342Z,6.68
2022-11-11T18:51:26.249Z,6.63
2022-11-11T18:54:12.760Z,6.60
2022-11-11T18:56:59.660Z,6.60
2022-11-11T18:59:46.514Z,6.50
2022-11-11T19:02:32.815Z,6.49
2022-11-11T19:05:21.063Z,6.45
2022-11-11T19:08:07.809Z,6.40
2022-11-11T19:10:54.978Z,6.39
2022-11-11T19:13:42.056Z,6.39
2022-11-11T19:16:28.611Z,6.33
2022-11-11T19:19:16.121Z,6.27
2022-11-11T19:22:04.077Z,6.22
2022-11-11T19:24:50.944Z,6.16
2022-11-11T19:27:37.247Z,6.19
2022-11-11T19:30:23.877Z,6.16
2022-11-11T19:33:10.657Z,6.13
2022-11-11T19:35:58.664Z,6.11
2022-11-11T19:38:48.725Z,6.03
2022-11-11T19:41:35.302Z,6.02
2022-11-11T19:44:21.719Z,6.07
2022-11-11T19:47:09.387Z,6.06
2022-11-11T19:49:55.917Z,6.10
2022-11-11T19:52:42.667Z,6.09
2022-11-11T19:55:31.052Z,6.05
2022-11-11T19:58:18.292Z,5.95
2022-11-11T20:01:14.540Z,5.88
2022-11-11T20:04:01.098Z,5.85
2022-11-11T20:06:48.181Z,5.87
2022-11-11T20:09:34.662Z,5.82
2022-11-11T20:12:22.544Z,5.85
2022-11-11T20:15:10.230Z,5.80
2022-11-11T20:17:56.984Z,5.79
2022-11-11T20:20:43.202Z,5.80
2022-11-11T20:23:30.408Z,5.80
2022-11-11T20:26:18.020Z,5.74
2022-11-11T20:29:05.876Z,5.78
2022-11-11T20:31:52.893Z,5.77
2022-11-11T20:34:39.383Z,5.73
2022-11-11T20:37:27.022Z,5.78
2022-11-11T20:40:13.786Z,5.72
2022-11-11T20:43:00.518Z,5.70
2022-11-11T20:45:48.221Z,5.71
2022-11-11T20:48:35.968Z,5.65
2022-11-11T20:51:24.032Z,5.64
2022-11-11T20:54:10.797Z,5.65
2022-11-11T20:56:57.310Z,5.58
2022-11-11T20:59:43.936Z,5.56
2022-11-11T21:02:31.979Z,5.46
2022-11-11T21:05:19.092Z,5.45
2022-11-11T21:08:05.687Z,5.45
2022-11-11T21:10:56.289Z,5.45
2022-11-11T21:13:45.712Z,5.40
2022-11-11T21:16:33.574Z,5.40
2022-11-11T21:19:21.807Z,5.36
2022-11-11T21:22:10.345Z,5.32
2022-11-11T21:24:57.376Z,5.28
2022-11-11T21:27:43.832Z,5.23
2022-11-11T21:30:30.316Z,5.26
2022-11-11T21:33:17.137Z,5.19
2022-11-11T21:36:07.249Z,5.17
2022-11-11T21:38:54.814Z,5.17
2022-11-11T21:41:42.346Z,5.15
2022-11-11T21:44:29.175Z,5.12
2022-11-11T21:47:15.975Z,5.07
2022-11-11T21:50:02.604Z,5.05
2022-11-11T21:52:50.734Z,5.04
2022-11-11T21:55:37.574Z,5.07
2022-11-11T21:58:24.341Z,5.00
2022-11-11T22:01:14.262Z,4.99
2022-11-11T22:04:02.961Z,4.87
2022-11-11T22:06:49.749Z,4.82
2022-11-11T22:09:37.543Z,4.87
2022-11-11T22:12:24.097Z,4.84
2022-11-11T22:15:10.998Z,4.82
2022-11-11T22:17:57.254Z,4.83
2022-11-11T22:20:43.736Z,4.79
2022-11-11T22:23:30.587Z,4.77
2022-11-11T22:26:20.015Z,4.79
2022-11-11T22:29:09.162Z,4.79
2022-11-11T22:31:55.787Z,4.85
2022-11-11T22:34:42.308Z,4.84
2022-11-11T22:37:28.866Z,4.86
2022-11-11T22:40:15.560Z,4.89
2022-11-11T22:43:03.594Z,4.89
2022-11-11T22:45:56.643Z,4.93
2022-11-11T22:48:43.813Z,4.94
2022-11-11T22:51:32.008Z,4.95
2022-11-11T22:54:20.880Z,4.94
2022-11-11T22:57:09.668Z,4.99
2022-11-11T22:59:57.324Z,5.02
2022-11-11T23:02:43.774Z,5.04
2022-11-11T23:05:30.388Z,5.05
2022-11-11T23:08:16.969Z,5.06
2022-11-11T23:11:07.356Z,5.08
2022-11-11T23:14:00.579Z,5.09
2022-11-11T23:16:50.127Z,5.16
2022-11-11T23:19:38.980Z,5.18
2022-11-11T23:22:25.269Z,5.21
2022-11-11T23:25:11.981Z,5.26
2022-11-11T23:27:58.479Z,5.27
2022-11-11T23:30:45.517Z,5.28
2022-11-11T23:33:34.440Z,5.29
2022-11-11T23:36:22.440Z,5.32
2022-11-11T23:39:08.783Z,5.32
2022-11-11T23:41:55.574Z,5.35
2022-11-11T23:44:42.122Z,5.33
2022-11-11T23:47:28.438Z,5.35
2022-11-11T23:50:16.730Z,5.35
2022-11-11T23:53:03.423Z,5.39
2022-11-11T23:55:50.415Z,5.38
2022-11-11T23:58:36.772Z,5.38
